sensor_id;sensor_type;location;lat;lon;timestamp;temperature;humidity
10411;DHT22;5251;52.112;8.606;2023-09-19T00:01:20;18.70;99.90
10411;DHT22;5251;52.112;8.606;2023-09-19T00:03:46;18.70;99.90
10411;DHT22;5251;52.112;8.606;2023-09-19T00:06:11;18.70;99.90
10411;DHT22;5251;52.112;8.606;2023-09-19T00:08:41;18.60;99.90
10411;DHT22;5251;52.112;8.606;2023-09-19T00:11:09;18.60;99.90
10411;DHT22;5251;52.112;8.606;2023-09-19T00:13:36;18.60;99.90
10411;DHT22;5251;52.112;8.606;2023-09-19T00:16:08;18.60;99.90
10411;DHT22;5251;52.112;8.606;2023-09-19T00:18:36;18.60;99.90
10411;DHT22;5251;52.112;8.606;2023-09-19T00:21:02;18.60;99.90
10411;DHT22;5251;52.112;8.606;2023-09-19T00:23:30;18.60;99.90
10411;DHT22;5251;52.112;8.606;2023-09-19T00:25:59;18.50;99.90
10411;DHT22;5251;52.112;8.606;2023-09-19T00:28:24;18.50;99.90
10411;DHT22;5251;52.112;8.606;2023-09-19T00:30:50;18.50;99.90
10411;DHT22;5251;52.112;8.606;2023-09-19T00:33:16;18.50;99.90
10411;DHT22;5251;52.112;8.606;2023-09-19T00:36:07;18.50;99.90
10411;DHT22;5251;52.112;8.606;2023-09-19T00:38:33;18.60;99.90
10411;DHT22;5251;52.112;8.606;2023-09-19T00:40:59;18.60;99.90
10411;DHT22;5251;52.112;8.606;2023-09-19T00:43:25;18.60;99.90
10411;DHT22;5251;52.112;8.606;2023-09-19T00:45:53;18.60;99.90
10411;DHT22;5251;52.112;8.606;2023-09-19T00:48:21;18.60;99.90
10411;DHT22;5251;52.112;8.606;2023-09-19T00:50:47;18.60;99.90
10411;DHT22;5251;52.112;8.606;2023-09-19T00:53:18;18.60;99.90
10411;DHT22;5251;52.112;8.606;2023-09-19T00:55:46;18.60;99.90
10411;DHT22;5251;52.112;8.606;2023-09-19T00:58:12;18.60;99.90
10411;DHT22;5251;52.112;8.606;2023-09-19T01:00:38;18.60;99.90
10411;DHT22;5251;52.112;8.606;2023-09-19T01:03:05;18.70;99.90
10411;DHT22;5251;52.112;8.606;2023-09-19T01:05:33;18.70;99.90
10411;DHT22;5251;52.112;8.606;2023-09-19T01:07:59;18.70;99.90
10411;DHT22;5251;52.112;8.606;2023-09-19T01:10:25;18.70;99.90
10411;DHT22;5251;52.112;8.606;2023-09-19T01:31:47;18.80;99.90
10411;DHT22;5251;52.112;8.606;2023-09-19T01:34:14;18.80;99.90
10411;DHT22;5251;52.112;8.606;2023-09-19T01:36:39;18.80;99.90
10411;DHT22;5251;52.112;8.606;2023-09-19T01:39:08;18.80;99.90
10411;DHT22;5251;52.112;8.606;2023-09-19T01:41:56;18.80;99.90
10411;DHT22;5251;52.112;8.606;2023-09-19T01:44:44;18.80;99.90
10411;DHT22;5251;52.112;8.606;2023-09-19T01:47:34;18.80;99.90
10411;DHT22;5251;52.112;8.606;2023-09-19T01:53:26;18.80;99.90
10411;DHT22;5251;52.112;8.606;2023-09-19T01:55:57;18.80;99.90
10411;DHT22;5251;52.112;8.606;2023-09-19T01:58:46;18.80;99.90
10411;DHT22;5251;52.112;8.606;2023-09-19T02:01:18;18.80;99.90
10411;DHT22;5251;52.112;8.606;2023-09-19T02:03:46;18.80;99.90
10411;DHT22;5251;52.112;8.606;2023-09-19T02:06:17;18.80;99.90
10411;DHT22;5251;52.112;8.606;2023-09-19T02:08:44;18.70;99.90
10411;DHT22;5251;52.112;8.606;2023-09-19T02:11:13;18.80;99.90
10411;DHT22;5251;52.112;8.606;2023-09-19T02:13:39;18.80;99.90
10411;DHT22;5251;52.112;8.606;2023-09-19T02:16:06;18.80;99.90
10411;DHT22;5251;52.112;8.606;2023-09-19T02:18:34;18.70;99.90
10411;DHT22;5251;52.112;8.606;2023-09-19T02:21:01;18.80;99.90
10411;DHT22;5251;52.112;8.606;2023-09-19T02:23:27;18.70;99.90
10411;DHT22;5251;52.112;8.606;2023-09-19T02:25:56;18.70;99.90
10411;DHT22;5251;52.112;8.606;2023-09-19T02:28:31;18.70;99.90
10411;DHT22;5251;52.112;8.606;2023-09-19T02:30:58;18.70;99.90
10411;DHT22;5251;52.112;8.606;2023-09-19T02:33:24;18.70;99.90
10411;DHT22;5251;52.112;8.606;2023-09-19T02:35:49;18.70;99.90
10411;DHT22;5251;52.112;8.606;2023-09-19T02:38:15;18.70;99.90
10411;DHT22;5251;52.112;8.606;2023-09-19T02:40:43;18.70;99.90
10411;DHT22;5251;52.112;8.606;2023-09-19T02:43:09;18.60;99.90
10411;DHT22;5251;52.112;8.606;2023-09-19T02:45:35;18.70;99.90
10411;DHT22;5251;52.112;8.606;2023-09-19T02:48:00;18.70;99.90
10411;DHT22;5251;52.112;8.606;2023-09-19T02:50:27;18.60;99.90
10411;DHT22;5251;52.112;8.606;2023-09-19T02:52:53;18.60;99.90
10411;DHT22;5251;52.112;8.606;2023-09-19T02:55:20;18.60;99.90
10411;DHT22;5251;52.112;8.606;2023-09-19T03:00:14;18.60;99.90
10411;DHT22;5251;52.112;8.606;2023-09-19T03:02:40;18.60;99.90
10411;DHT22;5251;52.112;8.606;2023-09-19T03:05:07;18.60;99.90
10411;DHT22;5251;52.112;8.606;2023-09-19T03:07:33;18.60;99.90
10411;DHT22;5251;52.112;8.606;2023-09-19T03:09:59;18.60;99.90
10411;DHT22;5251;52.112;8.606;2023-09-19T03:12:26;18.60;99.90
10411;DHT22;5251;52.112;8.606;2023-09-19T03:14:51;18.60;99.90
10411;DHT22;5251;52.112;8.606;2023-09-19T03:17:17;18.50;99.90
10411;DHT22;5251;52.112;8.606;2023-09-19T03:19:45;18.50;99.90
10411;DHT22;5251;52.112;8.606;2023-09-19T03:22:10;18.50;99.90
10411;DHT22;5251;52.112;8.606;2023-09-19T03:24:36;18.40;99.90
10411;DHT22;5251;52.112;8.606;2023-09-19T03:27:03;18.40;99.90
10411;DHT22;5251;52.112;8.606;2023-09-19T03:29:28;18.40;99.90
10411;DHT22;5251;52.112;8.606;2023-09-19T03:31:54;18.40;99.90
10411;DHT22;5251;52.112;8.606;2023-09-19T03:34:20;18.40;99.90
10411;DHT22;5251;52.112;8.606;2023-09-19T03:36:46;18.30;99.90
10411;DHT22;5251;52.112;8.606;2023-09-19T03:39:11;18.30;99.90
10411;DHT22;5251;52.112;8.606;2023-09-19T03:41:37;18.30;99.90
10411;DHT22;5251;52.112;8.606;2023-09-19T03:44:03;18.20;99.90
10411;DHT22;5251;52.112;8.606;2023-09-19T03:46:28;18.20;99.90
10411;DHT22;5251;52.112;8.606;2023-09-19T03:48:55;18.10;99.90
10411;DHT22;5251;52.112;8.606;2023-09-19T03:51:21;18.10;99.90
10411;DHT22;5251;52.112;8.606;2023-09-19T03:53:47;18.10;99.90
10411;DHT22;5251;52.112;8.606;2023-09-19T03:56:14;18.00;99.90
10411;DHT22;5251;52.112;8.606;2023-09-19T03:58:40;18.00;99.90
10411;DHT22;5251;52.112;8.606;2023-09-19T04:01:06;18.00;99.90
10411;DHT22;5251;52.112;8.606;2023-09-19T04:03:34;18.00;99.90
10411;DHT22;5251;52.112;8.606;2023-09-19T04:06:10;18.00;99.90
10411;DHT22;5251;52.112;8.606;2023-09-19T04:08:36;18.00;99.90
10411;DHT22;5251;52.112;8.606;2023-09-19T04:11:01;18.00;99.90
10411;DHT22;5251;52.112;8.606;2023-09-19T04:13:27;18.00;99.90
10411;DHT22;5251;52.112;8.606;2023-09-19T04:15:53;17.90;99.90
10411;DHT22;5251;52.112;8.606;2023-09-19T04:18:19;17.90;99.90
10411;DHT22;5251;52.112;8.606;2023-09-19T04:20:52;17.90;99.90
10411;DHT22;5251;52.112;8.606;2023-09-19T04:23:19;17.90;99.90
10411;DHT22;5251;52.112;8.606;2023-09-19T04:25:47;17.90;99.90
10411;DHT22;5251;52.112;8.606;2023-09-19T04:28:14;17.90;99.90
10411;DHT22;5251;52.112;8.606;2023-09-19T04:30:39;17.90;99.90
10411;DHT22;5251;52.112;8.606;2023-09-19T04:33:08;17.80;99.90
10411;DHT22;5251;52.112;8.606;2023-09-19T04:35:34;17.80;99.90
10411;DHT22;5251;52.112;8.606;2023-09-19T04:38:00;17.80;99.90
10411;DHT22;5251;52.112;8.606;2023-09-19T04:40:26;17.80;99.90
10411;DHT22;5251;52.112;8.606;2023-09-19T04:42:56;17.70;99.90
10411;DHT22;5251;52.112;8.606;2023-09-19T04:45:22;17.70;99.90
10411;DHT22;5251;52.112;8.606;2023-09-19T04:47:48;17.70;99.90
10411;DHT22;5251;52.112;8.606;2023-09-19T04:50:14;17.70;99.90
10411;DHT22;5251;52.112;8.606;2023-09-19T04:52:41;17.60;99.90
10411;DHT22;5251;52.112;8.606;2023-09-19T04:55:13;17.50;99.90
10411;DHT22;5251;52.112;8.606;2023-09-19T04:57:45;17.60;99.90
10411;DHT22;5251;52.112;8.606;2023-09-19T05:00:22;17.50;99.90
10411;DHT22;5251;52.112;8.606;2023-09-19T05:02:53;17.50;99.90
10411;DHT22;5251;52.112;8.606;2023-09-19T05:05:20;17.40;99.90
10411;DHT22;5251;52.112;8.606;2023-09-19T05:07:47;17.40;99.90
10411;DHT22;5251;52.112;8.606;2023-09-19T05:10:13;17.40;99.90
10411;DHT22;5251;52.112;8.606;2023-09-19T05:12:40;17.40;99.90
10411;DHT22;5251;52.112;8.606;2023-09-19T05:15:07;17.40;99.90
10411;DHT22;5251;52.112;8.606;2023-09-19T05:17:33;17.40;99.90
10411;DHT22;5251;52.112;8.606;2023-09-19T05:19:59;17.30;99.90
10411;DHT22;5251;52.112;8.606;2023-09-19T05:22:31;17.30;99.90
10411;DHT22;5251;52.112;8.606;2023-09-19T05:24:58;17.30;99.90
10411;DHT22;5251;52.112;8.606;2023-09-19T05:27:24;17.30;99.90
10411;DHT22;5251;52.112;8.606;2023-09-19T05:29:49;17.20;99.90
10411;DHT22;5251;52.112;8.606;2023-09-19T05:32:18;17.10;99.90
10411;DHT22;5251;52.112;8.606;2023-09-19T05:34:45;17.10;99.90
10411;DHT22;5251;52.112;8.606;2023-09-19T05:37:11;17.10;99.90
10411;DHT22;5251;52.112;8.606;2023-09-19T05:39:36;17.10;99.90
10411;DHT22;5251;52.112;8.606;2023-09-19T05:42:03;17.00;99.90
10411;DHT22;5251;52.112;8.606;2023-09-19T05:44:28;17.00;99.90
10411;DHT22;5251;52.112;8.606;2023-09-19T05:46:54;16.90;99.90
10411;DHT22;5251;52.112;8.606;2023-09-19T05:49:22;16.90;99.90
10411;DHT22;5251;52.112;8.606;2023-09-19T05:51:47;16.80;99.90
10411;DHT22;5251;52.112;8.606;2023-09-19T05:54:13;16.80;99.90
10411;DHT22;5251;52.112;8.606;2023-09-19T05:56:39;16.80;99.90
10411;DHT22;5251;52.112;8.606;2023-09-19T05:59:04;16.70;99.90
10411;DHT22;5251;52.112;8.606;2023-09-19T06:01:31;16.70;99.90
10411;DHT22;5251;52.112;8.606;2023-09-19T06:03:58;16.70;99.90
10411;DHT22;5251;52.112;8.606;2023-09-19T06:06:25;16.70;99.90
10411;DHT22;5251;52.112;8.606;2023-09-19T06:08:51;16.70;99.90
10411;DHT22;5251;52.112;8.606;2023-09-19T06:11:17;16.70;99.90
10411;DHT22;5251;52.112;8.606;2023-09-19T06:13:46;16.60;99.90
10411;DHT22;5251;52.112;8.606;2023-09-19T06:16:12;16.60;99.90
10411;DHT22;5251;52.112;8.606;2023-09-19T06:18:38;16.60;99.90
10411;DHT22;5251;52.112;8.606;2023-09-19T06:21:04;16.70;99.90
10411;DHT22;5251;52.112;8.606;2023-09-19T06:23:34;16.60;99.90
10411;DHT22;5251;52.112;8.606;2023-09-19T06:26:00;16.60;99.90
10411;DHT22;5251;52.112;8.606;2023-09-19T06:28:26;16.70;99.90
10411;DHT22;5251;52.112;8.606;2023-09-19T06:30:54;16.70;99.90
10411;DHT22;5251;52.112;8.606;2023-09-19T06:33:20;16.70;99.90
10411;DHT22;5251;52.112;8.606;2023-09-19T06:35:47;16.70;99.90
10411;DHT22;5251;52.112;8.606;2023-09-19T06:38:13;16.70;99.90
10411;DHT22;5251;52.112;8.606;2023-09-19T06:40:41;16.70;99.90
10411;DHT22;5251;52.112;8.606;2023-09-19T06:43:12;16.70;99.90
10411;DHT22;5251;52.112;8.606;2023-09-19T06:45:37;16.80;99.90
10411;DHT22;5251;52.112;8.606;2023-09-19T06:48:03;16.80;99.90
10411;DHT22;5251;52.112;8.606;2023-09-19T06:50:30;16.80;99.90
10411;DHT22;5251;52.112;8.606;2023-09-19T06:52:56;16.90;99.90
10411;DHT22;5251;52.112;8.606;2023-09-19T06:55:25;17.00;99.90
10411;DHT22;5251;52.112;8.606;2023-09-19T06:57:53;17.00;99.90
10411;DHT22;5251;52.112;8.606;2023-09-19T07:00:23;17.10;99.90
10411;DHT22;5251;52.112;8.606;2023-09-19T07:03:02;17.20;99.90
10411;DHT22;5251;52.112;8.606;2023-09-19T07:05:31;17.30;99.90
10411;DHT22;5251;52.112;8.606;2023-09-19T07:07:58;17.40;99.90
10411;DHT22;5251;52.112;8.606;2023-09-19T07:10:25;17.50;99.90
10411;DHT22;5251;52.112;8.606;2023-09-19T07:12:58;17.60;99.90
10411;DHT22;5251;52.112;8.606;2023-09-19T07:15:24;17.60;99.90
10411;DHT22;5251;52.112;8.606;2023-09-19T07:17:54;17.70;99.90
10411;DHT22;5251;52.112;8.606;2023-09-19T07:20:20;17.80;99.90
10411;DHT22;5251;52.112;8.606;2023-09-19T07:22:46;17.80;99.90
10411;DHT22;5251;52.112;8.606;2023-09-19T07:25:13;17.90;99.90
10411;DHT22;5251;52.112;8.606;2023-09-19T07:27:41;17.90;99.90
10411;DHT22;5251;52.112;8.606;2023-09-19T07:30:07;18.00;99.90
10411;DHT22;5251;52.112;8.606;2023-09-19T07:32:35;18.00;99.90
10411;DHT22;5251;52.112;8.606;2023-09-19T07:35:02;18.00;99.90
10411;DHT22;5251;52.112;8.606;2023-09-19T07:37:30;18.10;99.90
10411;DHT22;5251;52.112;8.606;2023-09-19T07:39:59;18.10;99.90
10411;DHT22;5251;52.112;8.606;2023-09-19T07:42:24;18.10;99.90
10411;DHT22;5251;52.112;8.606;2023-09-19T07:44:51;18.10;99.90
10411;DHT22;5251;52.112;8.606;2023-09-19T07:47:17;18.10;99.90
10411;DHT22;5251;52.112;8.606;2023-09-19T07:49:42;18.20;99.90
10411;DHT22;5251;52.112;8.606;2023-09-19T07:52:09;18.20;99.90
10411;DHT22;5251;52.112;8.606;2023-09-19T07:54:35;18.20;99.90
10411;DHT22;5251;52.112;8.606;2023-09-19T07:57:02;18.30;99.90
10411;DHT22;5251;52.112;8.606;2023-09-19T07:59:28;18.30;99.90
10411;DHT22;5251;52.112;8.606;2023-09-19T08:01:53;18.40;99.90
10411;DHT22;5251;52.112;8.606;2023-09-19T08:04:19;18.40;99.90
10411;DHT22;5251;52.112;8.606;2023-09-19T08:06:45;18.50;99.90
10411;DHT22;5251;52.112;8.606;2023-09-19T08:09:11;18.60;99.90
10411;DHT22;5251;52.112;8.606;2023-09-19T08:11:37;18.60;99.90
10411;DHT22;5251;52.112;8.606;2023-09-19T08:14:04;18.60;99.90
10411;DHT22;5251;52.112;8.606;2023-09-19T08:16:31;18.70;99.90
10411;DHT22;5251;52.112;8.606;2023-09-19T08:18:57;18.70;99.90
10411;DHT22;5251;52.112;8.606;2023-09-19T08:21:23;18.80;99.90
10411;DHT22;5251;52.112;8.606;2023-09-19T08:23:50;18.90;99.90
10411;DHT22;5251;52.112;8.606;2023-09-19T08:26:15;18.90;99.90
10411;DHT22;5251;52.112;8.606;2023-09-19T08:28:41;18.90;99.90
10411;DHT22;5251;52.112;8.606;2023-09-19T08:31:07;19.00;99.90
10411;DHT22;5251;52.112;8.606;2023-09-19T08:33:34;19.10;99.90
10411;DHT22;5251;52.112;8.606;2023-09-19T08:36:01;19.10;99.90
10411;DHT22;5251;52.112;8.606;2023-09-19T08:38:27;19.20;99.90
10411;DHT22;5251;52.112;8.606;2023-09-19T08:40:59;19.20;99.90
10411;DHT22;5251;52.112;8.606;2023-09-19T08:43:26;19.30;99.90
10411;DHT22;5251;52.112;8.606;2023-09-19T08:46:10;19.30;99.90
10411;DHT22;5251;52.112;8.606;2023-09-19T08:48:39;19.40;99.90
10411;DHT22;5251;52.112;8.606;2023-09-19T08:54:07;19.60;99.90
10411;DHT22;5251;52.112;8.606;2023-09-19T08:56:33;19.70;99.90
10411;DHT22;5251;52.112;8.606;2023-09-19T08:59:06;19.80;99.90
10411;DHT22;5251;52.112;8.606;2023-09-19T09:01:36;19.90;99.90
10411;DHT22;5251;52.112;8.606;2023-09-19T09:04:03;20.10;99.90
10411;DHT22;5251;52.112;8.606;2023-09-19T09:06:34;20.10;99.90
10411;DHT22;5251;52.112;8.606;2023-09-19T09:09:00;20.20;99.90
10411;DHT22;5251;52.112;8.606;2023-09-19T09:11:26;20.30;99.90
10411;DHT22;5251;52.112;8.606;2023-09-19T09:13:53;20.40;99.90
10411;DHT22;5251;52.112;8.606;2023-09-19T09:16:19;20.50;99.90
10411;DHT22;5251;52.112;8.606;2023-09-19T09:18:47;20.60;99.90
10411;DHT22;5251;52.112;8.606;2023-09-19T09:21:18;20.70;99.90
10411;DHT22;5251;52.112;8.606;2023-09-19T09:23:43;20.80;99.90
10411;DHT22;5251;52.112;8.606;2023-09-19T09:26:09;20.80;99.10
10411;DHT22;5251;52.112;8.606;2023-09-19T09:28:35;20.90;98.90
10411;DHT22;5251;52.112;8.606;2023-09-19T09:31:04;20.90;99.00
10411;DHT22;5251;52.112;8.606;2023-09-19T09:33:36;21.00;99.60
10411;DHT22;5251;52.112;8.606;2023-09-19T09:36:03;21.00;98.80
10411;DHT22;5251;52.112;8.606;2023-09-19T09:38:43;21.00;98.40
10411;DHT22;5251;52.112;8.606;2023-09-19T09:41:09;21.10;98.40
10411;DHT22;5251;52.112;8.606;2023-09-19T09:43:42;21.10;98.10
10411;DHT22;5251;52.112;8.606;2023-09-19T09:49:01;21.10;98.50
10411;DHT22;5251;52.112;8.606;2023-09-19T09:54:27;21.10;98.00
10411;DHT22;5251;52.112;8.606;2023-09-19T09:57:08;21.20;97.10
10411;DHT22;5251;52.112;8.606;2023-09-19T10:02:35;21.20;97.60
10411;DHT22;5251;52.112;8.606;2023-09-19T10:05:14;21.20;97.50
10411;DHT22;5251;52.112;8.606;2023-09-19T10:07:47;21.20;97.20
10411;DHT22;5251;52.112;8.606;2023-09-19T10:10:32;21.20;97.90
10411;DHT22;5251;52.112;8.606;2023-09-19T10:13:06;21.30;97.90
10411;DHT22;5251;52.112;8.606;2023-09-19T10:15:33;21.30;97.20
10411;DHT22;5251;52.112;8.606;2023-09-19T10:18:05;21.40;97.20
10411;DHT22;5251;52.112;8.606;2023-09-19T10:20:31;21.40;97.30
10411;DHT22;5251;52.112;8.606;2023-09-19T10:23:03;21.40;96.20
10411;DHT22;5251;52.112;8.606;2023-09-19T10:25:37;21.40;96.00
10411;DHT22;5251;52.112;8.606;2023-09-19T10:28:06;21.40;95.70
10411;DHT22;5251;52.112;8.606;2023-09-19T10:30:37;21.40;95.90
10411;DHT22;5251;52.112;8.606;2023-09-19T10:33:04;21.50;95.60
10411;DHT22;5251;52.112;8.606;2023-09-19T10:35:33;21.50;95.60
10411;DHT22;5251;52.112;8.606;2023-09-19T10:38:03;21.50;96.00
10411;DHT22;5251;52.112;8.606;2023-09-19T10:40:29;21.50;95.80
10411;DHT22;5251;52.112;8.606;2023-09-19T10:43:03;21.60;95.30
10411;DHT22;5251;52.112;8.606;2023-09-19T10:45:35;21.60;94.90
10411;DHT22;5251;52.112;8.606;2023-09-19T10:48:02;21.70;94.50
10411;DHT22;5251;52.112;8.606;2023-09-19T10:53:27;21.90;95.40
10411;DHT22;5251;52.112;8.606;2023-09-19T10:55:58;21.90;94.60
10411;DHT22;5251;52.112;8.606;2023-09-19T10:58:31;22.00;95.00
10411;DHT22;5251;52.112;8.606;2023-09-19T11:01:00;22.00;94.20
10411;DHT22;5251;52.112;8.606;2023-09-19T11:03:30;22.10;94.70
10411;DHT22;5251;52.112;8.606;2023-09-19T11:06:02;22.10;94.40
10411;DHT22;5251;52.112;8.606;2023-09-19T11:11:42;22.20;94.90
10411;DHT22;5251;52.112;8.606;2023-09-19T11:30:47;22.70;94.00
10411;DHT22;5251;52.112;8.606;2023-09-19T11:36:15;22.80;94.00
10411;DHT22;5251;52.112;8.606;2023-09-19T11:43:53;23.10;92.90
10411;DHT22;5251;52.112;8.606;2023-09-19T11:46:24;23.20;92.70
10411;DHT22;5251;52.112;8.606;2023-09-19T11:48:51;23.20;92.20
10411;DHT22;5251;52.112;8.606;2023-09-19T11:51:21;23.30;92.40
10411;DHT22;5251;52.112;8.606;2023-09-19T11:53:58;23.30;92.50
10411;DHT22;5251;52.112;8.606;2023-09-19T11:56:27;23.40;92.40
10411;DHT22;5251;52.112;8.606;2023-09-19T11:58:55;23.50;91.70
10411;DHT22;5251;52.112;8.606;2023-09-19T12:01:31;23.60;91.90
10411;DHT22;5251;52.112;8.606;2023-09-19T12:04:02;23.60;91.40
10411;DHT22;5251;52.112;8.606;2023-09-19T12:06:30;23.70;91.10
10411;DHT22;5251;52.112;8.606;2023-09-19T12:08:58;23.80;90.90
10411;DHT22;5251;52.112;8.606;2023-09-19T12:11:29;23.80;90.80
10411;DHT22;5251;52.112;8.606;2023-09-19T12:13:59;23.80;89.40
10411;DHT22;5251;52.112;8.606;2023-09-19T12:16:26;23.90;88.20
10411;DHT22;5251;52.112;8.606;2023-09-19T12:18:56;23.80;88.20
10411;DHT22;5251;52.112;8.606;2023-09-19T12:21:28;23.80;87.10
10411;DHT22;5251;52.112;8.606;2023-09-19T12:26:41;23.70;89.10
10411;DHT22;5251;52.112;8.606;2023-09-19T12:29:18;23.60;88.70
10411;DHT22;5251;52.112;8.606;2023-09-19T12:31:54;23.60;89.50
10411;DHT22;5251;52.112;8.606;2023-09-19T12:36:49;23.60;88.60
10411;DHT22;5251;52.112;8.606;2023-09-19T12:39:24;23.50;88.50
10411;DHT22;5251;52.112;8.606;2023-09-19T12:41:51;23.50;89.80
10411;DHT22;5251;52.112;8.606;2023-09-19T12:44:19;23.50;89.60
10411;DHT22;5251;52.112;8.606;2023-09-19T12:46:44;23.40;89.50
10411;DHT22;5251;52.112;8.606;2023-09-19T12:49:18;23.40;90.10
10411;DHT22;5251;52.112;8.606;2023-09-19T12:51:45;23.40;90.60
10411;DHT22;5251;52.112;8.606;2023-09-19T12:54:11;23.40;91.60
10411;DHT22;5251;52.112;8.606;2023-09-19T12:56:41;23.40;90.90
10411;DHT22;5251;52.112;8.606;2023-09-19T12:59:12;23.40;90.60
10411;DHT22;5251;52.112;8.606;2023-09-19T13:01:39;23.40;89.50
10411;DHT22;5251;52.112;8.606;2023-09-19T13:04:20;23.30;89.70
10411;DHT22;5251;52.112;8.606;2023-09-19T13:06:53;23.20;88.60
10411;DHT22;5251;52.112;8.606;2023-09-19T13:09:21;23.20;89.90
10411;DHT22;5251;52.112;8.606;2023-09-19T13:11:48;23.10;88.20
10411;DHT22;5251;52.112;8.606;2023-09-19T13:14:17;23.00;88.70
10411;DHT22;5251;52.112;8.606;2023-09-19T13:17:04;23.00;87.50
10411;DHT22;5251;52.112;8.606;2023-09-19T13:25:17;22.70;90.00
10411;DHT22;5251;52.112;8.606;2023-09-19T13:27:45;22.60;89.90
10411;DHT22;5251;52.112;8.606;2023-09-19T13:30:12;22.60;88.20
10411;DHT22;5251;52.112;8.606;2023-09-19T13:32:38;22.60;88.80
10411;DHT22;5251;52.112;8.606;2023-09-19T13:35:06;22.50;88.90
10411;DHT22;5251;52.112;8.606;2023-09-19T13:37:35;22.50;88.70
10411;DHT22;5251;52.112;8.606;2023-09-19T13:40:04;22.50;90.50
10411;DHT22;5251;52.112;8.606;2023-09-19T13:42:30;22.50;90.70
10411;DHT22;5251;52.112;8.606;2023-09-19T13:44:57;22.50;89.90
10411;DHT22;5251;52.112;8.606;2023-09-19T13:47:22;22.50;90.30
10411;DHT22;5251;52.112;8.606;2023-09-19T13:49:50;22.50;89.40
10411;DHT22;5251;52.112;8.606;2023-09-19T13:52:20;22.50;91.00
10411;DHT22;5251;52.112;8.606;2023-09-19T13:54:45;22.60;89.90
10411;DHT22;5251;52.112;8.606;2023-09-19T13:57:11;22.60;90.00
10411;DHT22;5251;52.112;8.606;2023-09-19T13:59:37;22.70;90.80
10411;DHT22;5251;52.112;8.606;2023-09-19T14:02:03;22.80;90.70
10411;DHT22;5251;52.112;8.606;2023-09-19T14:04:28;22.80;90.50
10411;DHT22;5251;52.112;8.606;2023-09-19T14:06:54;22.90;90.00
10411;DHT22;5251;52.112;8.606;2023-09-19T14:09:20;22.90;88.50
10411;DHT22;5251;52.112;8.606;2023-09-19T14:11:46;22.90;87.20
10411;DHT22;5251;52.112;8.606;2023-09-19T14:14:13;22.90;88.20
10411;DHT22;5251;52.112;8.606;2023-09-19T14:16:40;22.90;90.00
10411;DHT22;5251;52.112;8.606;2023-09-19T14:19:07;22.90;89.20
10411;DHT22;5251;52.112;8.606;2023-09-19T14:21:33;22.90;89.60
10411;DHT22;5251;52.112;8.606;2023-09-19T14:23:59;23.00;90.10
10411;DHT22;5251;52.112;8.606;2023-09-19T14:26:24;23.00;88.60
10411;DHT22;5251;52.112;8.606;2023-09-19T14:28:50;22.90;89.30
10411;DHT22;5251;52.112;8.606;2023-09-19T14:31:15;22.90;88.90
10411;DHT22;5251;52.112;8.606;2023-09-19T14:33:41;22.90;87.90
10411;DHT22;5251;52.112;8.606;2023-09-19T14:36:08;22.90;89.10
10411;DHT22;5251;52.112;8.606;2023-09-19T14:38:35;22.80;87.10
10411;DHT22;5251;52.112;8.606;2023-09-19T14:41:03;22.80;88.80
10411;DHT22;5251;52.112;8.606;2023-09-19T14:43:29;22.80;88.70
10411;DHT22;5251;52.112;8.606;2023-09-19T14:45:56;22.80;86.90
10411;DHT22;5251;52.112;8.606;2023-09-19T14:48:23;22.70;87.70
10411;DHT22;5251;52.112;8.606;2023-09-19T14:50:51;22.70;87.00
10411;DHT22;5251;52.112;8.606;2023-09-19T14:53:17;22.70;86.60
10411;DHT22;5251;52.112;8.606;2023-09-19T14:55:43;22.60;86.90
10411;DHT22;5251;52.112;8.606;2023-09-19T14:58:10;22.60;86.30
10411;DHT22;5251;52.112;8.606;2023-09-19T15:00:37;22.50;88.00
10411;DHT22;5251;52.112;8.606;2023-09-19T15:03:03;22.50;88.50
10411;DHT22;5251;52.112;8.606;2023-09-19T15:05:29;22.50;87.90
10411;DHT22;5251;52.112;8.606;2023-09-19T15:07:56;22.60;88.70
10411;DHT22;5251;52.112;8.606;2023-09-19T15:10:22;22.60;90.10
10411;DHT22;5251;52.112;8.606;2023-09-19T15:12:48;22.60;88.60
10411;DHT22;5251;52.112;8.606;2023-09-19T15:15:14;22.60;87.90
10411;DHT22;5251;52.112;8.606;2023-09-19T15:17:40;22.70;89.00
10411;DHT22;5251;52.112;8.606;2023-09-19T15:20:06;22.70;87.20
10411;DHT22;5251;52.112;8.606;2023-09-19T15:22:36;22.80;88.50
10411;DHT22;5251;52.112;8.606;2023-09-19T15:25:02;22.80;88.20
10411;DHT22;5251;52.112;8.606;2023-09-19T15:27:28;22.80;87.30
10411;DHT22;5251;52.112;8.606;2023-09-19T15:29:56;22.80;88.30
10411;DHT22;5251;52.112;8.606;2023-09-19T15:32:24;22.80;88.00
10411;DHT22;5251;52.112;8.606;2023-09-19T15:34:49;22.80;88.90
10411;DHT22;5251;52.112;8.606;2023-09-19T15:37:15;22.80;86.80
10411;DHT22;5251;52.112;8.606;2023-09-19T15:39:41;22.90;87.20
10411;DHT22;5251;52.112;8.606;2023-09-19T15:42:07;22.80;86.00
10411;DHT22;5251;52.112;8.606;2023-09-19T15:44:33;22.80;85.40
10411;DHT22;5251;52.112;8.606;2023-09-19T15:46:59;22.80;85.00
10411;DHT22;5251;52.112;8.606;2023-09-19T15:49:24;22.80;85.30
10411;DHT22;5251;52.112;8.606;2023-09-19T15:51:50;22.80;85.30
10411;DHT22;5251;52.112;8.606;2023-09-19T15:54:17;22.80;84.50
10411;DHT22;5251;52.112;8.606;2023-09-19T15:56:44;22.70;84.40
10411;DHT22;5251;52.112;8.606;2023-09-19T15:59:10;22.60;84.00
10411;DHT22;5251;52.112;8.606;2023-09-19T16:01:38;22.60;84.90
10411;DHT22;5251;52.112;8.606;2023-09-19T16:04:04;22.60;84.30
10411;DHT22;5251;52.112;8.606;2023-09-19T16:06:30;22.50;85.30
10411;DHT22;5251;52.112;8.606;2023-09-19T16:08:58;22.50;85.50
10411;DHT22;5251;52.112;8.606;2023-09-19T16:11:27;22.50;85.50
10411;DHT22;5251;52.112;8.606;2023-09-19T16:13:53;22.40;85.00
10411;DHT22;5251;52.112;8.606;2023-09-19T16:16:20;22.40;85.90
10411;DHT22;5251;52.112;8.606;2023-09-19T16:18:59;22.30;85.90
10411;DHT22;5251;52.112;8.606;2023-09-19T16:21:30;22.20;86.60
10411;DHT22;5251;52.112;8.606;2023-09-19T16:23:58;22.20;87.70
10411;DHT22;5251;52.112;8.606;2023-09-19T16:26:25;22.10;87.20
10411;DHT22;5251;52.112;8.606;2023-09-19T16:28:53;22.10;87.80
10411;DHT22;5251;52.112;8.606;2023-09-19T16:31:19;22.00;86.40
10411;DHT22;5251;52.112;8.606;2023-09-19T16:33:46;21.90;86.30
10411;DHT22;5251;52.112;8.606;2023-09-19T16:36:14;21.90;87.50
10411;DHT22;5251;52.112;8.606;2023-09-19T16:38:42;21.80;88.00
10411;DHT22;5251;52.112;8.606;2023-09-19T16:41:08;21.70;87.50
10411;DHT22;5251;52.112;8.606;2023-09-19T16:43:34;21.70;88.10
10411;DHT22;5251;52.112;8.606;2023-09-19T16:46:05;21.60;88.30
10411;DHT22;5251;52.112;8.606;2023-09-19T16:48:34;21.60;88.80
10411;DHT22;5251;52.112;8.606;2023-09-19T16:51:05;21.60;88.10
10411;DHT22;5251;52.112;8.606;2023-09-19T16:53:32;21.50;88.70
10411;DHT22;5251;52.112;8.606;2023-09-19T16:56:16;21.50;88.00
10411;DHT22;5251;52.112;8.606;2023-09-19T16:58:45;21.50;88.30
10411;DHT22;5251;52.112;8.606;2023-09-19T17:01:13;21.50;89.10
10411;DHT22;5251;52.112;8.606;2023-09-19T17:03:40;21.40;88.60
10411;DHT22;5251;52.112;8.606;2023-09-19T17:06:07;21.40;88.50
10411;DHT22;5251;52.112;8.606;2023-09-19T17:08:34;21.40;88.60